createdAt,value
2018-08-19T00:00:59.948Z,94.90
2018-08-19T00:03:28.854Z,94.90
2018-08-19T00:05:57.823Z,95.00
2018-08-19T00:08:26.945Z,95.00
2018-08-19T00:11:03.332Z,95.00
2018-08-19T00:13:32.476Z,95.40
2018-08-19T00:16:02.137Z,95.80
2018-08-19T00:18:31.272Z,95.50
2018-08-19T00:21:00.311Z,95.50
2018-08-19T00:23:37.949Z,95.40
2018-08-19T00:26:10.288Z,95.40
2018-08-19T00:28:39.317Z,95.40
2018-08-19T00:31:08.258Z,95.40
2018-08-19T00:33:37.415Z,95.50
2018-08-19T00:36:24.296Z,95.40
2018-08-19T00:38:53.887Z,95.30
2018-08-19T00:41:24.230Z,95.30
2018-08-19T00:43:53.680Z,95.30
2018-08-19T00:46:27.594Z,95.30
2018-08-19T00:48:56.760Z,95.30
2018-08-19T00:51:27.146Z,95.50
2018-08-19T00:53:56.640Z,95.60
2018-08-19T00:56:25.677Z,95.80
2018-08-19T00:58:54.766Z,96.00
2018-08-19T01:01:33.285Z,95.70
2018-08-19T01:04:02.275Z,95.70
2018-08-19T01:06:38.974Z,95.60
2018-08-19T01:09:08.617Z,95.60
2018-08-19T01:11:37.865Z,95.60
2018-08-19T01:14:09.629Z,95.60
2018-08-19T01:16:38.724Z,95.60
2018-08-19T01:19:08.122Z,95.50
2018-08-19T01:21:36.995Z,95.50
2018-08-19T01:24:10.962Z,95.60
2018-08-19T01:26:41.746Z,95.60
2018-08-19T01:29:11.622Z,96.10
2018-08-19T01:31:40.841Z,95.70
2018-08-19T01:34:12.392Z,95.70
2018-08-19T01:36:42.460Z,95.70
2018-08-19T01:39:15.392Z,95.60
2018-08-19T01:41:48.691Z,95.70
2018-08-19T01:44:21.239Z,95.70
2018-08-19T01:46:51.886Z,95.70
2018-08-19T01:49:22.060Z,95.80
2018-08-19T01:51:51.251Z,95.90
2018-08-19T01:54:22.240Z,95.90
2018-08-19T01:56:54.288Z,95.90
2018-08-19T01:59:23.746Z,96.10
2018-08-19T02:01:58.083Z,97.00
2018-08-19T02:04:26.894Z,98.30
2018-08-19T02:06:55.899Z,98.50
2018-08-19T02:09:25.125Z,98.20
2018-08-19T02:12:00.691Z,98.10
2018-08-19T02:14:29.458Z,97.70
2018-08-19T02:16:58.470Z,98.00
2018-08-19T02:19:27.405Z,97.50
2018-08-19T02:21:56.315Z,97.30
2018-08-19T02:24:25.243Z,97.10
2018-08-19T02:26:54.377Z,96.90
2018-08-19T02:29:35.952Z,96.80
2018-08-19T02:32:06.409Z,97.10
2018-08-19T02:34:37.694Z,96.90
2018-08-19T02:37:09.409Z,96.70
2018-08-19T02:39:40.323Z,96.70
2018-08-19T02:42:16.997Z,97.00
2018-08-19T02:44:45.945Z,96.60
2018-08-19T02:47:14.977Z,96.60
2018-08-19T02:49:44.880Z,96.50
2018-08-19T02:52:18.255Z,96.60
2018-08-19T02:54:47.143Z,96.90
2018-08-19T02:57:16.419Z,96.80
2018-08-19T02:59:45.555Z,96.60
2018-08-19T03:02:24.918Z,96.70
2018-08-19T03:04:54.673Z,96.70
2018-08-19T03:07:25.186Z,96.60
2018-08-19T03:09:59.914Z,96.70
2018-08-19T03:12:29.379Z,96.60
2018-08-19T03:14:58.497Z,96.50
2018-08-19T03:17:29.443Z,96.50
2018-08-19T03:20:00.680Z,96.50
2018-08-19T03:22:30.473Z,96.60
2018-08-19T03:25:04.164Z,96.50
2018-08-19T03:27:33.563Z,96.40
2018-08-19T03:30:03.999Z,96.50
2018-08-19T03:32:33.049Z,96.50
2018-08-19T03:35:13.141Z,96.50
2018-08-19T03:37:42.708Z,96.40
2018-08-19T03:40:11.797Z,96.80
2018-08-19T03:42:40.955Z,96.40
2018-08-19T03:45:15.181Z,96.40
2018-08-19T03:47:44.209Z,96.50
2018-08-19T03:50:18.642Z,96.50
2018-08-19T03:52:48.310Z,96.50
2018-08-19T03:55:24.454Z,96.50
2018-08-19T03:57:54.714Z,96.60
2018-08-19T04:00:23.639Z,96.60
2018-08-19T04:02:52.571Z,96.70
2018-08-19T04:05:35.331Z,96.70
2018-08-19T04:08:04.943Z,96.70
2018-08-19T04:10:33.937Z,96.70
2018-08-19T04:13:03.908Z,96.70
2018-08-19T04:15:32.870Z,96.80
2018-08-19T04:18:02.762Z,96.70
2018-08-19T04:20:31.853Z,96.80
2018-08-19T04:23:00.891Z,96.80
2018-08-19T04:25:34.945Z,96.80
2018-08-19T04:28:05.238Z,97.20
2018-08-19T04:30:34.258Z,96.80
2018-08-19T04:33:03.760Z,96.80
2018-08-19T04:35:33.093Z,96.80
2018-08-19T04:38:02.113Z,96.80
2018-08-19T04:40:31.074Z,96.80
2018-08-19T04:43:00.131Z,96.90
2018-08-19T04:45:29.197Z,96.80
2018-08-19T04:47:58.411Z,96.90
2018-08-19T04:50:27.528Z,97.80
2018-08-19T04:52:56.621Z,97.90
2018-08-19T04:55:25.842Z,97.90
2018-08-19T04:57:55.167Z,98.60
2018-08-19T05:00:24.247Z,98.40
2018-08-19T05:02:53.146Z,98.80
2018-08-19T05:05:22.194Z,99.30
2018-08-19T05:07:51.205Z,99.40
2018-08-19T05:10:20.221Z,99.30
2018-08-19T05:12:49.206Z,99.30
2018-08-19T05:15:18.193Z,99.00
2018-08-19T05:17:47.913Z,98.60
2018-08-19T05:20:17.066Z,98.50
2018-08-19T05:22:46.404Z,98.80
2018-08-19T05:25:15.524Z,99.00
2018-08-19T05:27:47.237Z,99.10
2018-08-19T05:30:16.180Z,99.20
2018-08-19T05:32:49.279Z,99.20
2018-08-19T05:35:18.272Z,99.30
2018-08-19T05:37:47.291Z,99.60
2018-08-19T05:40:16.353Z,99.70
2018-08-19T05:42:45.475Z,99.90
2018-08-19T05:45:14.457Z,99.30
2018-08-19T05:47:43.847Z,99.10
2018-08-19T05:50:12.881Z,99.60
2018-08-19T05:52:42.411Z,99.90
2018-08-19T05:55:11.898Z,99.90
2018-08-19T05:57:41.383Z,99.90
2018-08-19T06:00:15.704Z,99.90
2018-08-19T06:02:45.232Z,99.90
2018-08-19T06:05:14.383Z,99.70
2018-08-19T06:07:43.845Z,99.50
2018-08-19T06:10:13.760Z,99.40
2018-08-19T06:12:42.738Z,99.70
2018-08-19T06:15:11.719Z,99.40
2018-08-19T06:17:41.053Z,99.20
2018-08-19T06:20:10.369Z,99.30
2018-08-19T06:22:40.523Z,99.10
2018-08-19T06:25:10.767Z,99.00
2018-08-19T06:27:45.765Z,99.10
2018-08-19T06:30:15.585Z,98.70
2018-08-19T06:32:45.485Z,98.80
2018-08-19T06:35:15.192Z,98.50
2018-08-19T06:37:44.470Z,98.30
2018-08-19T06:40:15.401Z,98.30
2018-08-19T06:42:44.671Z,98.20
2018-08-19T06:45:14.341Z,98.00
2018-08-19T06:47:43.646Z,98.10
2018-08-19T06:50:22.310Z,97.80
2018-08-19T06:52:52.183Z,97.60
2018-08-19T06:55:22.286Z,97.30
2018-08-19T06:57:51.638Z,97.40
2018-08-19T07:00:24.812Z,97.00
2018-08-19T07:02:54.180Z,96.60
2018-08-19T07:05:23.771Z,96.40
2018-08-19T07:07:53.029Z,95.60
2018-08-19T07:10:38.773Z,95.40
2018-08-19T07:13:10.821Z,94.80
2018-08-19T07:15:41.201Z,94.70
2018-08-19T07:18:12.256Z,94.50
2018-08-19T07:20:42.854Z,94.50
2018-08-19T07:23:13.113Z,94.20
2018-08-19T07:25:43.311Z,94.00
2018-08-19T07:28:13.370Z,93.20
2018-08-19T07:30:42.853Z,92.80
2018-08-19T07:33:12.501Z,93.40
2018-08-19T07:35:41.877Z,93.00
2018-08-19T07:38:11.161Z,92.10
2018-08-19T07:40:40.377Z,92.20
2018-08-19T07:43:09.608Z,91.50
2018-08-19T07:45:38.589Z,91.60
2018-08-19T07:48:07.863Z,92.00
2018-08-19T07:50:36.845Z,91.60
2018-08-19T07:53:05.921Z,91.10
2018-08-19T07:55:34.948Z,91.10
2018-08-19T07:58:04.454Z,90.60
2018-08-19T08:00:40.914Z,90.40
2018-08-19T08:03:10.383Z,90.50
2018-08-19T08:05:44.425Z,90.70
2018-08-19T08:08:14.359Z,90.80
2018-08-19T08:10:43.410Z,90.40
2018-08-19T08:13:13.506Z,90.20
2018-08-19T08:15:49.720Z,90.10
2018-08-19T08:18:18.854Z,90.00
2018-08-19T08:20:47.944Z,89.90
2018-08-19T08:23:20.051Z,88.40
2018-08-19T08:25:49.368Z,87.40
2018-08-19T08:28:18.211Z,86.80
2018-08-19T08:30:47.745Z,86.60
2018-08-19T08:33:16.920Z,86.20
2018-08-19T08:35:52.164Z,86.50
2018-08-19T08:38:21.438Z,88.00
2018-08-19T08:40:50.502Z,87.30
2018-08-19T08:43:20.941Z,85.00
2018-08-19T08:45:49.801Z,83.80
2018-08-19T08:48:18.968Z,84.30
2018-08-19T08:50:48.166Z,83.10
2018-08-19T08:53:17.390Z,82.20
2018-08-19T08:55:46.619Z,81.60
2018-08-19T08:58:15.709Z,81.80
2018-08-19T09:00:45.510Z,81.60
2018-08-19T09:03:14.621Z,81.40
2018-08-19T09:05:43.881Z,80.00
2018-08-19T09:08:13.197Z,81.60
2018-08-19T09:10:42.310Z,80.00
2018-08-19T09:13:11.190Z,80.40
2018-08-19T09:15:40.823Z,80.60
2018-08-19T09:18:10.551Z,81.00
2018-08-19T09:20:39.568Z,81.30
2018-08-19T09:23:09.455Z,81.30
2018-08-19T09:25:38.726Z,81.30
2018-08-19T09:28:07.858Z,81.50
2018-08-19T09:30:40.704Z,81.40
2018-08-19T09:33:10.074Z,81.70
2018-08-19T09:35:40.856Z,82.20
2018-08-19T09:38:15.658Z,82.00
2018-08-19T09:40:45.644Z,81.20
2018-08-19T09:43:15.470Z,81.70
2018-08-19T09:45:48.278Z,81.90
2018-08-19T09:48:17.646Z,81.40
2018-08-19T09:50:47.327Z,81.20
2018-08-19T09:53:16.392Z,80.70
2018-08-19T09:55:47.174Z,81.30
2018-08-19T09:58:19.354Z,80.90
2018-08-19T10:00:53.676Z,80.80
2018-08-19T10:03:23.055Z,80.40
2018-08-19T10:05:52.599Z,80.70
2018-08-19T10:08:23.679Z,79.40
2018-08-19T10:10:52.878Z,78.40
2018-08-19T10:13:21.929Z,79.30
2018-08-19T10:15:51.795Z,78.50
2018-08-19T10:18:20.857Z,79.40
2018-08-19T10:20:50.022Z,79.00
2018-08-19T10:23:19.169Z,78.60
2018-08-19T10:25:48.970Z,78.40
2018-08-19T10:28:18.097Z,77.90
2018-08-19T10:30:59.426Z,77.90
2018-08-19T10:33:28.514Z,78.70
2018-08-19T10:35:59.939Z,77.00
2018-08-19T10:38:28.900Z,77.10
2018-08-19T10:41:05.033Z,77.40
2018-08-19T10:43:34.141Z,77.90
2018-08-19T10:46:04.286Z,78.10
2018-08-19T10:51:25.444Z,76.30
2018-08-19T10:53:54.853Z,77.40
2018-08-19T10:56:24.814Z,76.40
2018-08-19T10:58:59.935Z,75.70
2018-08-19T11:01:29.365Z,75.50
2018-08-19T11:03:58.959Z,75.80
2018-08-19T11:06:28.621Z,75.80
2018-08-19T11:08:58.829Z,75.50
2018-08-19T11:11:30.966Z,76.20
2018-08-19T11:14:00.733Z,74.30
2018-08-19T11:16:30.145Z,74.30
2018-08-19T11:18:59.464Z,72.90
2018-08-19T11:21:39.787Z,73.50
2018-08-19T11:24:21.163Z,73.80
2018-08-19T11:26:56.142Z,74.90
2018-08-19T11:29:25.047Z,75.40
2018-08-19T11:31:53.857Z,74.50
2018-08-19T11:34:23.531Z,73.90
2018-08-19T11:36:53.545Z,72.40
2018-08-19T11:39:29.133Z,73.10
2018-08-19T11:41:59.651Z,72.10
2018-08-19T11:44:29.185Z,71.80
2018-08-19T11:46:59.091Z,71.40
2018-08-19T11:49:28.518Z,70.90
2018-08-19T11:51:59.049Z,69.70
2018-08-19T11:54:28.555Z,69.90
2018-08-19T11:57:03.767Z,70.80
2018-08-19T11:59:37.989Z,71.50
2018-08-19T12:02:12.573Z,72.00
2018-08-19T12:04:41.523Z,72.20
2018-08-19T12:07:10.552Z,70.80
2018-08-19T12:09:50.535Z,71.30
2018-08-19T12:12:19.496Z,71.00
2018-08-19T12:14:50.376Z,69.70
2018-08-19T12:17:19.441Z,69.30
2018-08-19T12:19:49.576Z,70.20
2018-08-19T12:22:18.963Z,69.30
2018-08-19T12:24:48.976Z,68.70
2018-08-19T12:27:20.127Z,69.30
2018-08-19T12:29:49.206Z,68.30
2018-08-19T12:32:27.486Z,68.00
2018-08-19T12:35:00.472Z,68.10
2018-08-19T12:37:31.070Z,66.30
2018-08-19T12:40:00.517Z,68.00
2018-08-19T12:42:30.201Z,66.80
2018-08-19T12:45:04.502Z,65.30
2018-08-19T12:47:33.353Z,64.60
2018-08-19T12:50:06.555Z,66.00
2018-08-19T12:52:36.283Z,65.80
2018-08-19T12:55:06.518Z,65.70
2018-08-19T12:57:36.599Z,65.00
2018-08-19T13:00:15.879Z,64.60
2018-08-19T13:02:46.296Z,65.20
2018-08-19T13:05:16.222Z,63.50
2018-08-19T13:07:45.193Z,63.70
2018-08-19T13:10:14.412Z,64.90
2018-08-19T13:12:47.576Z,64.30
2018-08-19T13:15:16.734Z,64.40
2018-08-19T13:17:45.782Z,62.90
2018-08-19T13:20:15.276Z,63.80
2018-08-19T13:22:55.044Z,62.80
2018-08-19T13:25:24.674Z,63.00
2018-08-19T13:27:53.830Z,62.80
2018-08-19T13:30:23.647Z,62.70
2018-08-19T13:32:53.876Z,62.90
2018-08-19T13:35:22.802Z,64.70
2018-08-19T13:37:51.918Z,64.30
2018-08-19T13:40:21.641Z,64.00
2018-08-19T13:42:50.838Z,64.50
2018-08-19T13:45:22.800Z,63.10
2018-08-19T13:47:54.183Z,63.60
2018-08-19T13:50:23.788Z,63.10
2018-08-19T13:52:53.277Z,61.40
2018-08-19T13:55:22.206Z,62.80
2018-08-19T13:57:51.516Z,60.60
2018-08-19T14:00:22.359Z,60.50
2018-08-19T14:02:52.233Z,60.40
2018-08-19T14:05:21.936Z,61.20
2018-08-19T14:07:50.885Z,60.20
2018-08-19T14:10:20.597Z,60.60
2018-08-19T14:12:50.482Z,60.60
2018-08-19T14:15:19.584Z,61.00
2018-08-19T14:17:49.068Z,62.10
2018-08-19T14:20:18.161Z,61.50
2018-08-19T14:22:47.155Z,62.20
2018-08-19T14:25:17.044Z,61.30
2018-08-19T14:27:48.011Z,61.10
2018-08-19T14:30:17.663Z,60.00
2018-08-19T14:32:47.615Z,61.10
2018-08-19T14:35:16.642Z,60.50
2018-08-19T14:37:45.569Z,60.10
2018-08-19T14:40:16.915Z,60.90
2018-08-19T14:42:50.080Z,61.20
2018-08-19T14:45:19.933Z,60.20
2018-08-19T14:47:48.963Z,60.70
2018-08-19T14:50:20.197Z,61.10
2018-08-19T14:52:49.433Z,60.50
2018-08-19T14:55:18.532Z,61.80
2018-08-19T14:57:48.101Z,60.80
2018-08-19T15:00:18.479Z,60.50
2018-08-19T15:02:48.149Z,60.40
2018-08-19T15:05:18.575Z,61.90
2018-08-19T15:07:47.853Z,61.60
2018-08-19T15:10:22.432Z,61.90
2018-08-19T15:12:51.535Z,62.40
2018-08-19T15:15:20.505Z,63.00
2018-08-19T15:17:54.885Z,62.50
2018-08-19T15:20:28.959Z,62.70
2018-08-19T15:23:07.845Z,62.50
2018-08-19T15:25:37.106Z,63.20
2018-08-19T15:28:06.381Z,62.90
2018-08-19T15:30:35.633Z,64.00
2018-08-19T15:33:04.769Z,64.50
2018-08-19T15:35:34.705Z,65.50
2018-08-19T15:38:05.174Z,64.80
2018-08-19T15:40:38.636Z,64.90
2018-08-19T15:43:09.119Z,64.40
2018-08-19T15:45:38.210Z,65.00
2018-08-19T15:48:08.003Z,64.90
2018-08-19T15:50:38.854Z,65.70
2018-08-19T15:53:08.796Z,65.90
2018-08-19T15:55:38.258Z,66.30
2018-08-19T15:58:07.256Z,65.70
2018-08-19T16:00:39.195Z,65.00
2018-08-19T16:03:09.279Z,65.60
2018-08-19T16:05:38.409Z,66.00
2018-08-19T16:08:07.505Z,66.10
2018-08-19T16:10:36.547Z,66.80
2018-08-19T16:13:09.207Z,66.70
2018-08-19T16:15:38.140Z,66.80
2018-08-19T16:18:07.466Z,66.50
2018-08-19T16:20:36.854Z,68.00
2018-08-19T16:23:06.080Z,67.10
2018-08-19T16:25:35.052Z,67.30
2018-08-19T16:28:04.095Z,67.80
2018-08-19T16:30:33.504Z,67.90
2018-08-19T16:33:02.428Z,67.70
2018-08-19T16:35:32.154Z,67.90
2018-08-19T16:38:01.126Z,68.30
2018-08-19T16:40:30.165Z,68.40
2018-08-19T16:42:59.698Z,69.30
2018-08-19T16:45:28.623Z,69.10
2018-08-19T16:47:57.602Z,69.60
2018-08-19T16:50:26.743Z,69.70
2018-08-19T16:52:56.295Z,69.50
2018-08-19T16:55:25.368Z,69.70
2018-08-19T16:57:54.385Z,69.90
2018-08-19T17:00:23.971Z,70.10
2018-08-19T17:02:54.533Z,70.60
2018-08-19T17:05:31.866Z,70.70
2018-08-19T17:08:01.889Z,71.10
2018-08-19T17:10:33.883Z,71.60
2018-08-19T17:13:03.863Z,71.20
2018-08-19T17:15:33.442Z,71.60
2018-08-19T17:18:04.007Z,71.80
2018-08-19T17:20:34.637Z,71.60
2018-08-19T17:23:04.863Z,71.90
2018-08-19T17:25:35.621Z,71.80
2018-08-19T17:28:09.795Z,72.10
2018-08-19T17:30:38.800Z,72.30
2018-08-19T17:33:10.986Z,72.60
2018-08-19T17:35:42.975Z,72.80
2018-08-19T17:38:13.942Z,72.90
2018-08-19T17:40:43.704Z,73.30
2018-08-19T17:43:13.214Z,73.60
2018-08-19T17:45:42.466Z,73.80
2018-08-19T17:48:13.292Z,73.80
2018-08-19T17:50:45.067Z,74.10
2018-08-19T17:53:14.982Z,74.30
2018-08-19T17:55:45.779Z,74.30
2018-08-19T17:58:14.969Z,74.60
2018-08-19T18:00:45.387Z,74.80
2018-08-19T18:03:16.647Z,75.60
2018-08-19T18:05:50.053Z,75.40
2018-08-19T18:08:20.138Z,75.60
2018-08-19T18:10:54.387Z,76.20
2018-08-19T18:13:23.907Z,76.20
2018-08-19T18:15:53.217Z,76.20
2018-08-19T18:18:22.711Z,76.70
2018-08-19T18:20:53.290Z,76.80
2018-08-19T18:23:27.596Z,77.20
2018-08-19T18:25:58.696Z,77.40
2018-08-19T18:28:32.259Z,78.40
2018-08-19T18:31:09.063Z,77.90
2018-08-19T18:33:48.803Z,78.20
2018-08-19T18:36:19.468Z,78.60
2018-08-19T18:38:48.320Z,78.80
2018-08-19T18:41:24.726Z,79.00
2018-08-19T18:44:05.995Z,79.30
2018-08-19T18:46:35.420Z,79.40
2018-08-19T18:49:19.497Z,79.80
2018-08-19T18:51:51.474Z,79.90
2018-08-19T18:54:32.411Z,80.20
2018-08-19T18:57:04.840Z,80.60
2018-08-19T18:59:33.618Z,80.90
2018-08-19T19:02:03.775Z,81.50
2018-08-19T19:04:32.745Z,81.60
2018-08-19T19:07:02.460Z,81.20
2018-08-19T19:09:36.439Z,81.90
2018-08-19T19:12:05.671Z,82.20
2018-08-19T19:14:35.182Z,82.50
2018-08-19T19:17:04.206Z,82.80
2018-08-19T19:19:37.965Z,83.10
2018-08-19T19:22:07.160Z,84.00
2018-08-19T19:24:38.604Z,83.60
2018-08-19T19:27:08.686Z,83.80
2018-08-19T19:29:37.636Z,84.20
2018-08-19T19:32:28.041Z,84.30
2018-08-19T19:35:05.676Z,84.70
2018-08-19T19:37:34.885Z,85.00
2018-08-19T19:40:08.856Z,85.10
2018-08-19T19:42:37.712Z,84.50
2018-08-19T19:45:06.915Z,86.10
2018-08-19T19:47:35.922Z,86.20
2018-08-19T19:50:04.899Z,85.30
2018-08-19T19:52:33.940Z,85.70
2018-08-19T19:55:04.480Z,85.70
2018-08-19T19:57:33.974Z,85.70
2018-08-19T20:00:03.708Z,85.70
2018-08-19T20:02:33.308Z,85.50
2018-08-19T20:05:09.274Z,85.70
2018-08-19T20:07:38.227Z,86.80
2018-08-19T20:10:12.605Z,85.80
2018-08-19T20:12:41.506Z,86.20
2018-08-19T20:15:12.656Z,86.80
2018-08-19T20:17:41.570Z,87.40
2018-08-19T20:20:10.352Z,87.90
2018-08-19T20:22:39.338Z,88.40
2018-08-19T20:25:10.467Z,88.90
2018-08-19T20:27:40.093Z,89.10
2018-08-19T20:30:09.244Z,89.30
2018-08-19T20:32:39.258Z,89.60
2018-08-19T20:35:09.058Z,89.80
2018-08-19T20:37:38.906Z,89.80
2018-08-19T20:40:08.288Z,89.60
2018-08-19T20:42:37.205Z,89.60
2018-08-19T20:45:07.131Z,89.60
2018-08-19T20:47:37.399Z,89.70
2018-08-19T20:50:06.524Z,89.50
2018-08-19T20:52:49.076Z,90.00
2018-08-19T20:55:19.217Z,89.40
2018-08-19T20:57:49.090Z,89.30
2018-08-19T21:00:19.048Z,89.40
2018-08-19T21:02:47.907Z,89.40
2018-08-19T21:05:17.206Z,89.40
2018-08-19T21:07:46.436Z,89.40
2018-08-19T21:10:15.346Z,89.40
2018-08-19T21:12:44.278Z,89.40
2018-08-19T21:15:13.319Z,89.60
2018-08-19T21:17:42.272Z,89.40
2018-08-19T21:20:11.127Z,89.50
2018-08-19T21:22:40.185Z,89.60
2018-08-19T21:25:09.218Z,89.80
2018-08-19T21:27:38.170Z,89.80
2018-08-19T21:30:07.028Z,89.70
2018-08-19T21:32:35.953Z,89.90
2018-08-19T21:35:05.603Z,90.00
2018-08-19T21:37:35.428Z,90.10
2018-08-19T21:40:05.315Z,90.00
2018-08-19T21:42:50.051Z,90.10
2018-08-19T21:45:19.506Z,90.10
2018-08-19T21:47:48.863Z,90.20
2018-08-19T21:50:18.176Z,90.20
2018-08-19T21:53:07.163Z,90.20
2018-08-19T21:55:47.143Z,90.30
2018-08-19T21:58:16.182Z,90.30
2018-08-19T22:00:51.098Z,90.70
2018-08-19T22:03:25.968Z,90.50
2018-08-19T22:05:54.710Z,90.60
2018-08-19T22:08:24.593Z,90.60
2018-08-19T22:10:53.946Z,90.70
2018-08-19T22:13:23.159Z,90.70
2018-08-19T22:15:52.133Z,90.90
2018-08-19T22:18:22.141Z,90.90
2018-08-19T22:21:05.188Z,90.90
2018-08-19T22:23:39.381Z,91.10
2018-08-19T22:26:09.941Z,91.00
2018-08-19T22:28:39.208Z,91.00
2018-08-19T22:31:19.857Z,91.10
2018-08-19T22:33:52.332Z,91.10
2018-08-19T22:36:21.413Z,91.10
2018-08-19T22:38:50.930Z,91.10
2018-08-19T22:41:25.670Z,91.10
2018-08-19T22:43:55.599Z,91.20
2018-08-19T22:46:26.131Z,91.20
2018-08-19T22:48:55.732Z,91.30
2018-08-19T22:51:24.762Z,91.40
2018-08-19T22:53:55.059Z,91.50
2018-08-19T22:56:24.980Z,91.50
2018-08-19T22:58:54.541Z,91.50
2018-08-19T23:01:27.000Z,91.50
2018-08-19T23:04:00.780Z,91.50
2018-08-19T23:06:30.145Z,91.50
2018-08-19T23:08:59.255Z,91.50
2018-08-19T23:11:35.780Z,91.60
2018-08-19T23:14:16.545Z,91.70
2018-08-19T23:16:45.677Z,91.70
2018-08-19T23:19:17.414Z,91.80
2018-08-19T23:21:47.007Z,91.90
2018-08-19T23:24:15.965Z,92.00
2018-08-19T23:26:45.588Z,92.00
2018-08-19T23:29:15.034Z,92.20
2018-08-19T23:31:43.876Z,92.50
2018-08-19T23:34:13.286Z,92.60
2018-08-19T23:36:42.861Z,92.70
2018-08-19T23:39:11.837Z,92.90
2018-08-19T23:41:41.055Z,93.20
2018-08-19T23:44:10.279Z,93.40
2018-08-19T23:46:39.904Z,93.60
2018-08-19T23:49:09.524Z,93.70
2018-08-19T23:51:38.466Z,93.70
2018-08-19T23:54:07.482Z,93.70
2018-08-19T23:56:37.280Z,93.80
2018-08-19T23:59:06.841Z,93.90
